createdAt,value
2022-08-29T00:02:24.062Z,46.05
2022-08-29T00:04:52.427Z,44.97
2022-08-29T00:07:20.058Z,42.95
2022-08-29T00:09:47.525Z,47.55
2022-08-29T00:12:17.736Z,43.97
2022-08-29T00:14:45.424Z,45.00
2022-08-29T00:17:15.446Z,44.83
2022-08-29T00:19:43.023Z,52.53
2022-08-29T00:22:10.494Z,49.13
2022-08-29T00:24:38.106Z,45.47
2022-08-29T00:27:06.045Z,47.85
2022-08-29T00:29:33.539Z,46.10
2022-08-29T00:32:01.146Z,50.50
2022-08-29T00:34:28.762Z,45.70
2022-08-29T00:36:56.363Z,48.92
2022-08-29T00:39:23.891Z,47.25
2022-08-29T00:41:51.804Z,46.78
2022-08-29T00:44:19.979Z,52.50
2022-08-29T00:46:52.256Z,47.72
2022-08-29T00:49:28.747Z,48.47
2022-08-29T00:51:58.893Z,44.38
2022-08-29T00:54:27.374Z,45.30
2022-08-29T00:56:56.113Z,46.38
2022-08-29T00:59:31.941Z,47.42
2022-08-29T01:01:59.781Z,55.17
2022-08-29T01:04:27.540Z,57.92
2022-08-29T01:06:55.239Z,48.78
2022-08-29T01:09:24.534Z,54.83
2022-08-29T01:12:11.675Z,57.53
2022-08-29T01:14:41.089Z,57.00
2022-08-29T01:17:10.279Z,57.50
2022-08-29T01:19:52.482Z,54.75
2022-08-29T01:22:44.579Z,55.88
2022-08-29T01:25:17.010Z,55.10
2022-08-29T01:27:55.010Z,56.20
2022-08-29T01:30:25.397Z,56.30
2022-08-29T01:32:53.039Z,59.38
2022-08-29T01:35:20.551Z,66.20
2022-08-29T01:37:48.148Z,54.42
2022-08-29T01:40:15.757Z,57.20
2022-08-29T01:42:44.108Z,59.75
2022-08-29T01:45:12.037Z,55.72
2022-08-29T01:47:40.274Z,58.85
2022-08-29T01:50:14.538Z,58.10
2022-08-29T01:52:43.176Z,55.75
2022-08-29T01:55:11.441Z,55.65
2022-08-29T01:57:40.376Z,57.28
2022-08-29T02:00:10.832Z,51.03
2022-08-29T02:02:40.361Z,54.38
2022-08-29T02:05:09.852Z,49.10
2022-08-29T02:07:37.498Z,52.33
2022-08-29T02:10:06.955Z,50.45
2022-08-29T02:12:35.609Z,48.25
2022-08-29T02:15:03.846Z,47.03
2022-08-29T02:17:31.428Z,40.22
2022-08-29T02:19:59.299Z,43.53
2022-08-29T02:22:26.776Z,43.75
2022-08-29T02:24:54.325Z,43.92
2022-08-29T02:27:21.926Z,43.08
2022-08-29T02:29:49.488Z,34.85
2022-08-29T02:32:17.073Z,46.05
2022-08-29T02:34:47.901Z,37.90
2022-08-29T02:37:19.109Z,39.45
2022-08-29T02:39:46.765Z,35.97
2022-08-29T02:42:14.326Z,34.03
2022-08-29T02:44:41.890Z,30.27
2022-08-29T02:47:09.516Z,28.60
2022-08-29T02:49:37.135Z,34.80
2022-08-29T02:52:08.787Z,30.45
2022-08-29T02:54:36.447Z,29.33
2022-08-29T02:57:05.463Z,28.48
2022-08-29T02:59:32.964Z,31.10
2022-08-29T03:02:00.615Z,29.15
2022-08-29T03:04:28.470Z,28.88
2022-08-29T03:06:58.828Z,30.50
2022-08-29T03:09:26.467Z,26.23
2022-08-29T03:11:56.570Z,33.00
2022-08-29T03:14:24.793Z,22.95
2022-08-29T03:16:53.610Z,24.30
2022-08-29T03:19:23.519Z,24.50
2022-08-29T03:21:51.356Z,23.95
2022-08-29T03:24:26.230Z,26.45
2022-08-29T03:26:57.027Z,24.17
2022-08-29T03:29:26.449Z,22.25
2022-08-29T03:31:58.504Z,22.63
2022-08-29T03:34:29.397Z,30.08
2022-08-29T03:36:57.823Z,23.70
2022-08-29T03:39:25.771Z,25.45
2022-08-29T03:41:53.673Z,26.80
2022-08-29T03:44:22.673Z,22.85
2022-08-29T03:46:50.342Z,19.00
2022-08-29T03:49:18.094Z,25.08
2022-08-29T03:51:45.589Z,22.95
2022-08-29T03:54:13.194Z,22.90
2022-08-29T03:56:43.569Z,24.65
2022-08-29T03:59:11.506Z,26.70
2022-08-29T04:01:42.210Z,23.63
2022-08-29T04:04:30.020Z,26.33
2022-08-29T04:06:57.631Z,22.80
2022-08-29T04:09:32.468Z,26.17
2022-08-29T04:12:00.408Z,23.92
2022-08-29T04:14:29.583Z,26.23
2022-08-29T04:16:58.199Z,30.17
2022-08-29T04:19:25.685Z,26.60
2022-08-29T04:21:57.330Z,25.95
2022-08-29T04:24:25.502Z,23.48
2022-08-29T04:26:53.067Z,25.38
2022-08-29T04:29:20.578Z,23.40
2022-08-29T04:31:48.148Z,23.88
2022-08-29T04:34:18.405Z,24.60
2022-08-29T04:36:47.275Z,32.53
2022-08-29T04:39:15.442Z,30.90
2022-08-29T04:41:43.556Z,27.38
2022-08-29T04:44:14.362Z,26.30
2022-08-29T04:46:42.058Z,22.75
2022-08-29T04:49:09.599Z,26.13
2022-08-29T04:51:37.169Z,24.27
2022-08-29T04:54:06.715Z,25.02
2022-08-29T04:56:38.289Z,28.25
2022-08-29T04:59:09.669Z,25.67
2022-08-29T05:01:37.480Z,25.10
2022-08-29T05:04:05.547Z,30.05
2022-08-29T05:06:33.133Z,25.48
2022-08-29T05:09:00.752Z,30.92
2022-08-29T05:11:30.773Z,32.90
2022-08-29T05:13:59.670Z,29.90
2022-08-29T05:16:27.936Z,30.17
2022-08-29T05:18:56.418Z,28.42
2022-08-29T05:21:35.020Z,31.55
2022-08-29T05:24:05.623Z,43.13
2022-08-29T05:26:36.837Z,29.65
2022-08-29T05:29:08.416Z,29.15
2022-08-29T05:31:38.604Z,28.02
2022-08-29T05:34:16.260Z,30.75
2022-08-29T05:36:53.966Z,28.50
2022-08-29T05:39:21.474Z,31.13
2022-08-29T05:41:48.931Z,29.90
2022-08-29T05:44:16.837Z,33.97
2022-08-29T05:46:44.381Z,31.33
2022-08-29T05:49:12.100Z,42.83
2022-08-29T05:51:40.014Z,34.15
2022-08-29T05:54:08.342Z,35.03
2022-08-29T05:56:36.212Z,37.05
2022-08-29T05:59:04.105Z,31.27
2022-08-29T06:01:34.169Z,37.35
2022-08-29T06:04:01.966Z,34.75
2022-08-29T06:06:30.117Z,43.30
2022-08-29T06:08:59.280Z,39.22
2022-08-29T06:11:30.133Z,35.42
2022-08-29T06:13:58.284Z,36.50
2022-08-29T06:16:27.672Z,37.00
2022-08-29T06:18:55.447Z,35.97
2022-08-29T06:21:23.906Z,35.35
2022-08-29T06:23:51.565Z,31.25
2022-08-29T06:26:19.931Z,37.40
2022-08-29T06:28:48.090Z,43.42
2022-08-29T06:31:21.634Z,32.45
2022-08-29T06:33:53.390Z,37.05
2022-08-29T06:36:21.701Z,40.85
2022-08-29T06:38:49.338Z,35.78
2022-08-29T06:41:19.745Z,37.47
2022-08-29T06:43:47.274Z,35.42
2022-08-29T06:46:33.378Z,32.42
2022-08-29T06:49:02.710Z,34.33
2022-08-29T06:51:33.349Z,35.40
2022-08-29T06:54:02.938Z,38.88
2022-08-29T06:56:30.875Z,37.38
2022-08-29T06:58:58.728Z,39.53
2022-08-29T07:01:29.005Z,36.88
2022-08-29T07:03:58.098Z,35.60
2022-08-29T07:06:28.368Z,39.85
2022-08-29T07:08:56.598Z,37.47
2022-08-29T07:11:26.355Z,36.17
2022-08-29T07:13:57.451Z,47.92
2022-08-29T07:16:26.331Z,39.13
2022-08-29T07:18:56.837Z,42.33
2022-08-29T07:21:26.407Z,37.80
2022-08-29T07:23:55.598Z,34.58
2022-08-29T07:26:30.793Z,37.53
2022-08-29T07:29:03.238Z,32.05
2022-08-29T07:31:31.688Z,39.83
2022-08-29T07:34:02.650Z,34.45
2022-08-29T07:36:34.425Z,36.38
2022-08-29T07:39:05.521Z,31.35
2022-08-29T07:41:33.654Z,40.05
2022-08-29T07:44:03.556Z,37.17
2022-08-29T07:46:31.669Z,41.55
2022-08-29T07:49:00.028Z,37.00
2022-08-29T07:51:28.670Z,36.05
2022-08-29T07:53:58.299Z,40.83
2022-08-29T07:56:37.089Z,35.05
2022-08-29T07:59:06.544Z,34.95
2022-08-29T08:01:35.438Z,29.70
2022-08-29T08:04:03.327Z,33.67
2022-08-29T08:06:31.247Z,34.13
2022-08-29T08:09:01.893Z,37.45
2022-08-29T08:11:29.493Z,25.10
2022-08-29T08:13:57.902Z,30.75
2022-08-29T08:16:27.733Z,26.35
2022-08-29T08:18:56.217Z,21.85
2022-08-29T08:21:25.534Z,21.52
2022-08-29T08:23:53.603Z,21.27
2022-08-29T08:26:21.803Z,20.45
2022-08-29T08:28:50.158Z,16.48
2022-08-29T08:31:18.271Z,16.38
2022-08-29T08:33:48.570Z,18.45
2022-08-29T08:36:30.998Z,14.70
2022-08-29T08:39:00.110Z,18.48
2022-08-29T08:41:33.277Z,25.48
2022-08-29T08:44:07.227Z,17.85
2022-08-29T08:46:39.264Z,12.80
2022-08-29T08:49:16.891Z,15.30
2022-08-29T08:51:53.263Z,18.70
2022-08-29T08:54:26.908Z,12.75
2022-08-29T08:57:03.806Z,11.30
2022-08-29T08:59:42.763Z,13.68
2022-08-29T09:02:36.752Z,13.30
2022-08-29T09:05:19.618Z,17.13
2022-08-29T09:08:20.633Z,12.02
2022-08-29T09:11:06.414Z,17.98
2022-08-29T09:13:51.165Z,23.33
2022-08-29T09:16:27.510Z,19.48
2022-08-29T09:19:09.510Z,16.02
2022-08-29T09:21:49.433Z,15.88
2022-08-29T09:24:47.374Z,12.77
2022-08-29T09:27:38.344Z,14.07
2022-08-29T09:30:09.343Z,11.63
2022-08-29T09:32:54.307Z,15.00
2022-08-29T09:35:29.622Z,14.15
2022-08-29T09:38:08.054Z,16.53
2022-08-29T09:40:59.321Z,17.27
2022-08-29T09:43:41.533Z,15.98
2022-08-29T09:46:11.939Z,12.57
2022-08-29T09:48:43.024Z,18.65
2022-08-29T09:51:31.211Z,17.50
2022-08-29T09:54:19.067Z,27.33
2022-08-29T09:56:53.973Z,20.88
2022-08-29T09:59:31.174Z,17.55
2022-08-29T10:02:24.488Z,19.35
2022-08-29T10:05:00.470Z,10.93
2022-08-29T10:07:37.477Z,15.00
2022-08-29T10:10:23.630Z,21.98
2022-08-29T10:13:10.221Z,13.88
2022-08-29T10:16:13.459Z,13.57
2022-08-29T10:19:13.835Z,13.13
2022-08-29T10:22:04.535Z,25.77
2022-08-29T10:24:44.041Z,18.42
2022-08-29T10:27:26.571Z,15.73
2022-08-29T10:30:14.594Z,15.07
2022-08-29T10:32:57.025Z,19.92
2022-08-29T10:35:42.360Z,16.20
2022-08-29T10:38:27.863Z,20.27
2022-08-29T10:41:52.869Z,15.68
2022-08-29T10:44:40.459Z,21.42
2022-08-29T10:47:34.063Z,11.27
2022-08-29T10:50:27.521Z,11.68
2022-08-29T10:53:15.490Z,16.30
2022-08-29T10:55:54.349Z,13.88
2022-08-29T10:58:56.483Z,22.48
2022-08-29T11:01:59.374Z,16.45
2022-08-29T11:04:29.993Z,11.25
2022-08-29T11:07:04.353Z,11.93
2022-08-29T11:09:38.678Z,11.88
2022-08-29T11:12:18.081Z,12.88
2022-08-29T11:15:20.679Z,14.27
2022-08-29T11:17:56.215Z,13.15
2022-08-29T11:20:30.621Z,12.73
2022-08-29T11:23:26.626Z,17.83
2022-08-29T11:25:55.593Z,16.80
2022-08-29T11:28:52.626Z,13.20
2022-08-29T11:34:18.238Z,19.27
2022-08-29T11:37:26.976Z,13.63
2022-08-29T11:40:47.070Z,12.30
2022-08-29T11:43:18.476Z,17.52
2022-08-29T11:45:58.319Z,15.60
2022-08-29T11:48:42.087Z,17.10
2022-08-29T11:51:36.139Z,12.30
2022-08-29T11:54:26.225Z,17.05
2022-08-29T11:57:03.499Z,11.23
2022-08-29T11:59:49.355Z,13.30
2022-08-29T12:02:28.642Z,10.45
2022-08-29T12:05:06.722Z,13.52
2022-08-29T12:07:52.054Z,11.85
2022-08-29T12:10:25.484Z,12.93
2022-08-29T12:13:33.147Z,14.77
2022-08-29T12:16:09.481Z,16.35
2022-08-29T12:18:52.852Z,11.57
2022-08-29T12:21:38.552Z,20.10
2022-08-29T12:24:29.722Z,13.85
2022-08-29T12:26:57.611Z,17.35
2022-08-29T12:29:43.561Z,9.90
2022-08-29T12:32:33.019Z,15.15
2022-08-29T12:35:20.398Z,12.35
2022-08-29T12:38:28.306Z,14.77
2022-08-29T12:41:04.925Z,13.90
2022-08-29T12:43:44.008Z,19.75
2022-08-29T12:46:16.715Z,14.23
2022-08-29T12:48:57.573Z,12.00
2022-08-29T12:51:40.967Z,10.20
2022-08-29T12:54:11.033Z,14.02
2022-08-29T12:56:47.723Z,21.30
2022-08-29T12:59:20.459Z,16.42
2022-08-29T13:01:50.889Z,12.35
2022-08-29T13:04:34.049Z,11.27
2022-08-29T13:07:07.370Z,10.48
2022-08-29T13:09:43.633Z,14.20
2022-08-29T13:14:56.601Z,16.08
2022-08-29T13:20:38.355Z,17.65
2022-08-29T13:23:05.898Z,17.63
2022-08-29T13:25:34.126Z,12.40
2022-08-29T13:28:02.122Z,12.25
2022-08-29T13:30:29.734Z,15.98
2022-08-29T13:32:57.300Z,10.27
2022-08-29T13:35:37.130Z,12.68
2022-08-29T13:38:24.336Z,10.60
2022-08-29T13:40:57.315Z,15.13
2022-08-29T13:43:48.799Z,11.80
2022-08-29T13:46:27.350Z,12.05
2022-08-29T13:49:02.066Z,11.05
2022-08-29T13:51:29.614Z,8.13
2022-08-29T13:53:57.170Z,12.70
2022-08-29T13:56:32.766Z,15.23
2022-08-29T13:59:06.544Z,13.85
2022-08-29T14:04:38.069Z,9.82
2022-08-29T14:07:07.830Z,10.98
2022-08-29T14:09:37.965Z,8.40
2022-08-29T14:12:09.460Z,10.85
2022-08-29T14:14:36.984Z,11.35
2022-08-29T14:17:05.143Z,9.40
2022-08-29T14:19:33.795Z,10.57
2022-08-29T14:22:02.234Z,14.27
2022-08-29T14:24:32.007Z,13.48
2022-08-29T14:27:02.554Z,14.45
2022-08-29T14:29:31.652Z,10.63
2022-08-29T14:32:02.968Z,8.77
2022-08-29T14:34:32.796Z,7.30
2022-08-29T14:37:07.021Z,10.77
2022-08-29T14:39:35.043Z,7.95
2022-08-29T14:42:02.855Z,6.63
2022-08-29T14:44:30.445Z,11.23
2022-08-29T14:46:58.244Z,13.32
2022-08-29T14:49:26.086Z,7.38
2022-08-29T14:51:53.667Z,6.57
2022-08-29T14:54:21.231Z,6.57
2022-08-29T14:56:50.117Z,11.57
2022-08-29T14:59:22.756Z,4.88
2022-08-29T15:01:54.148Z,10.63
2022-08-29T15:04:34.960Z,7.43
2022-08-29T15:07:09.133Z,14.60
2022-08-29T15:09:39.776Z,8.35
2022-08-29T15:12:12.658Z,7.97
2022-08-29T15:14:41.561Z,4.25
2022-08-29T15:17:09.592Z,7.85
2022-08-29T15:22:25.449Z,12.00
2022-08-29T15:24:53.248Z,10.27
2022-08-29T15:27:27.105Z,7.55
2022-08-29T15:29:56.493Z,10.68
2022-08-29T15:32:26.035Z,9.93
2022-08-29T15:34:53.771Z,8.43
2022-08-29T15:37:22.319Z,5.72
2022-08-29T15:39:56.123Z,10.27
2022-08-29T15:42:26.597Z,11.18
2022-08-29T15:44:54.163Z,10.93
2022-08-29T15:47:25.680Z,8.68
2022-08-29T15:49:55.027Z,11.32
2022-08-29T15:52:22.525Z,6.30
2022-08-29T15:54:50.043Z,8.02
2022-08-29T15:57:25.511Z,12.27
2022-08-29T15:59:57.963Z,9.90
2022-08-29T16:02:28.083Z,12.25
2022-08-29T16:04:57.353Z,11.48
2022-08-29T16:07:31.660Z,12.40
2022-08-29T16:10:01.064Z,9.75
2022-08-29T16:12:31.485Z,12.13
2022-08-29T16:15:01.242Z,12.20
2022-08-29T16:17:31.580Z,9.07
2022-08-29T16:20:01.315Z,10.23
2022-08-29T16:22:30.200Z,11.35
2022-08-29T16:24:58.525Z,8.75
2022-08-29T16:27:26.158Z,7.93
2022-08-29T16:29:54.641Z,10.20
2022-08-29T16:32:22.182Z,15.27
2022-08-29T16:34:50.294Z,8.82
2022-08-29T16:37:18.946Z,10.15
2022-08-29T16:39:46.481Z,7.85
2022-08-29T16:42:14.273Z,9.95
2022-08-29T16:44:42.052Z,8.02
2022-08-29T16:47:10.802Z,10.88
2022-08-29T16:49:38.404Z,10.55
2022-08-29T16:52:06.338Z,15.15
2022-08-29T16:54:36.730Z,5.63
2022-08-29T16:57:04.549Z,6.28
2022-08-29T16:59:37.078Z,15.40
2022-08-29T17:02:05.149Z,10.32
2022-08-29T17:04:32.870Z,6.05
2022-08-29T17:07:05.941Z,8.68
2022-08-29T17:09:35.782Z,12.25
2022-08-29T17:12:03.861Z,6.47
2022-08-29T17:15:06.185Z,9.75
2022-08-29T17:17:35.339Z,11.73
2022-08-29T17:20:03.097Z,10.27
2022-08-29T17:22:30.855Z,9.63
2022-08-29T17:24:59.491Z,9.23
2022-08-29T17:27:30.106Z,13.80
2022-08-29T17:29:58.121Z,10.10
2022-08-29T17:32:25.871Z,14.35
2022-08-29T17:34:53.616Z,14.27
2022-08-29T17:37:21.161Z,14.55
2022-08-29T17:39:48.792Z,6.85
2022-08-29T17:42:16.730Z,7.68
2022-08-29T17:44:46.464Z,9.75
2022-08-29T17:47:14.247Z,9.98
2022-08-29T17:49:41.863Z,9.98
2022-08-29T17:52:09.472Z,5.65
2022-08-29T17:54:37.323Z,8.30
2022-08-29T17:57:05.061Z,10.82
2022-08-29T17:59:35.182Z,8.25
2022-08-29T18:02:05.287Z,9.77
2022-08-29T18:04:33.155Z,5.50
2022-08-29T18:07:00.842Z,8.00
2022-08-29T18:09:31.460Z,8.32
2022-08-29T18:11:59.083Z,8.57
2022-08-29T18:14:32.690Z,16.05
2022-08-29T18:17:00.321Z,10.48
2022-08-29T18:19:31.018Z,7.32
2022-08-29T18:21:59.633Z,9.23
2022-08-29T18:24:27.194Z,6.78
2022-08-29T18:26:54.801Z,9.73
2022-08-29T18:29:22.365Z,8.73
2022-08-29T18:31:50.255Z,10.60
2022-08-29T18:34:17.972Z,7.30
2022-08-29T18:36:48.608Z,8.35
2022-08-29T18:39:17.082Z,13.60
2022-08-29T18:41:45.082Z,16.92
2022-08-29T18:44:12.612Z,8.57
2022-08-29T18:46:47.973Z,16.02
2022-08-29T18:49:17.355Z,15.82
2022-08-29T18:51:44.911Z,12.20
2022-08-29T18:54:18.886Z,10.63
2022-08-29T18:56:47.101Z,14.45
2022-08-29T18:59:14.630Z,12.73
2022-08-29T19:01:43.106Z,15.13
2022-08-29T19:04:10.703Z,12.93
2022-08-29T19:06:38.259Z,13.15
2022-08-29T19:09:05.900Z,12.73
2022-08-29T19:11:33.483Z,14.20
2022-08-29T19:14:00.996Z,13.60
2022-08-29T19:16:28.861Z,13.85
2022-08-29T19:18:56.363Z,12.98
2022-08-29T19:21:26.169Z,10.75
2022-08-29T19:23:54.771Z,17.90
2022-08-29T19:26:31.932Z,14.27
2022-08-29T19:29:05.044Z,13.45
2022-08-29T19:31:32.879Z,10.40
2022-08-29T19:34:00.867Z,12.23
2022-08-29T19:36:28.543Z,14.75
2022-08-29T19:38:56.395Z,16.23
2022-08-29T19:41:25.062Z,14.95
2022-08-29T19:43:53.061Z,16.60
2022-08-29T19:46:23.293Z,17.98
2022-08-29T19:48:52.295Z,11.57
2022-08-29T19:51:24.748Z,11.02
2022-08-29T19:53:57.168Z,14.27
2022-08-29T19:56:29.236Z,9.10
2022-08-29T19:58:57.184Z,21.50
2022-08-29T20:01:25.792Z,18.55
2022-08-29T20:03:54.402Z,17.08
2022-08-29T20:06:23.330Z,14.13
2022-08-29T20:08:51.007Z,11.85
2022-08-29T20:11:21.988Z,13.40
2022-08-29T20:13:51.536Z,10.75
2022-08-29T20:16:30.925Z,8.27
2022-08-29T20:18:58.831Z,11.45
2022-08-29T20:21:26.901Z,9.68
2022-08-29T20:23:59.783Z,12.88
2022-08-29T20:26:33.482Z,15.55
2022-08-29T20:29:03.025Z,11.70
2022-08-29T20:31:30.741Z,10.32
2022-08-29T20:33:58.527Z,9.52
2022-08-29T20:36:45.842Z,11.23
2022-08-29T20:39:16.810Z,13.18
2022-08-29T20:41:52.202Z,10.07
2022-08-29T20:44:33.504Z,12.93
2022-08-29T20:47:01.936Z,15.55
2022-08-29T20:49:29.707Z,11.93
2022-08-29T20:51:57.323Z,14.82
2022-08-29T20:54:25.296Z,19.00
2022-08-29T20:56:55.118Z,11.38
2022-08-29T20:59:26.559Z,16.52
2022-08-29T21:01:55.740Z,11.45
2022-08-29T21:04:42.524Z,9.82
2022-08-29T21:07:13.223Z,13.20
2022-08-29T21:09:45.608Z,10.98
2022-08-29T21:12:14.569Z,13.95
2022-08-29T21:14:42.427Z,13.93
2022-08-29T21:17:11.545Z,15.60
2022-08-29T21:19:40.327Z,9.52
2022-08-29T21:22:10.360Z,11.45
2022-08-29T21:24:37.959Z,9.73
2022-08-29T21:27:05.956Z,15.07
2022-08-29T21:29:37.343Z,12.50
2022-08-29T21:32:05.256Z,13.35
2022-08-29T21:34:32.842Z,11.80
2022-08-29T21:37:00.519Z,10.73
2022-08-29T21:39:29.134Z,15.48
2022-08-29T21:41:58.334Z,16.42
2022-08-29T21:44:30.775Z,14.82
2022-08-29T21:46:58.763Z,13.32
2022-08-29T21:49:32.601Z,11.75
2022-08-29T21:52:00.909Z,12.68
2022-08-29T21:54:28.572Z,12.48
2022-08-29T21:56:56.116Z,10.18
2022-08-29T21:59:27.936Z,10.30
2022-08-29T22:01:56.713Z,11.90
2022-08-29T22:04:29.010Z,14.63
2022-08-29T22:06:59.283Z,9.40
2022-08-29T22:09:28.516Z,15.48
2022-08-29T22:11:56.454Z,9.35
2022-08-29T22:14:43.163Z,13.88
2022-08-29T22:17:10.786Z,13.75
2022-08-29T22:19:38.592Z,13.77
2022-08-29T22:22:06.235Z,13.13
2022-08-29T22:24:33.857Z,10.15
2022-08-29T22:27:03.890Z,15.75
2022-08-29T22:29:34.769Z,13.95
2022-08-29T22:32:05.240Z,12.07
2022-08-29T22:34:35.034Z,11.50
2022-08-29T22:37:02.858Z,9.25
2022-08-29T22:39:30.466Z,9.57
2022-08-29T22:41:58.038Z,14.95
2022-08-29T22:47:13.540Z,14.32
2022-08-29T22:49:41.237Z,16.33
2022-08-29T22:52:11.396Z,20.42
2022-08-29T22:54:39.727Z,11.85
2022-08-29T22:57:11.051Z,13.50
2022-08-29T22:59:42.369Z,11.68
2022-08-29T23:02:11.750Z,11.05
2022-08-29T23:04:40.244Z,14.73
2022-08-29T23:07:12.185Z,11.00
2022-08-29T23:09:41.938Z,10.35
2022-08-29T23:12:10.903Z,12.02
2022-08-29T23:14:40.424Z,13.40
2022-08-29T23:17:08.892Z,9.20
2022-08-29T23:19:37.110Z,12.63
2022-08-29T23:22:10.227Z,14.18
2022-08-29T23:24:41.574Z,7.90
2022-08-29T23:27:31.118Z,15.25
2022-08-29T23:30:00.086Z,14.00
2022-08-29T23:32:28.422Z,11.38
2022-08-29T23:34:58.473Z,14.38
2022-08-29T23:37:29.291Z,16.63
2022-08-29T23:39:56.799Z,11.23
2022-08-29T23:42:24.869Z,12.73
2022-08-29T23:44:58.249Z,22.17
2022-08-29T23:47:25.800Z,13.50
2022-08-29T23:49:53.287Z,9.65
2022-08-29T23:52:20.873Z,14.05
2022-08-29T23:54:50.727Z,9.93
2022-08-29T23:57:20.854Z,13.30
